createdAt,value
2022-09-23T00:00:49.383Z,7.47
2022-09-23T00:03:17.194Z,7.15
2022-09-23T00:05:44.649Z,7.28
2022-09-23T00:08:12.969Z,7.68
2022-09-23T00:10:40.857Z,7.03
2022-09-23T00:15:40.585Z,6.70
2022-09-23T00:18:08.043Z,8.43
2022-09-23T00:20:35.997Z,7.30
2022-09-23T00:25:30.585Z,6.90
2022-09-23T00:27:58.855Z,6.90
2022-09-23T00:30:27.520Z,7.35
2022-09-23T00:32:56.707Z,7.13
2022-09-23T00:35:24.273Z,6.57
2022-09-23T00:37:51.715Z,7.10
2022-09-23T00:40:19.180Z,7.03
2022-09-23T00:42:47.620Z,6.32
2022-09-23T00:45:15.685Z,6.85
2022-09-23T00:47:45.556Z,6.63
2022-09-23T00:50:15.894Z,6.35
2022-09-23T00:52:44.332Z,6.03
2022-09-23T00:55:13.952Z,7.32
2022-09-23T00:57:42.844Z,6.28
2022-09-23T01:00:10.954Z,6.38
2022-09-23T01:02:39.445Z,7.40
2022-09-23T01:05:08.447Z,6.43
2022-09-23T01:07:37.147Z,6.30
2022-09-23T01:10:05.453Z,5.88
2022-09-23T01:12:40.144Z,6.70
2022-09-23T01:15:10.696Z,6.38
2022-09-23T01:17:40.421Z,6.20
2022-09-23T01:20:38.000Z,6.03
2022-09-23T01:23:13.819Z,6.88
2022-09-23T01:25:55.238Z,7.00
2022-09-23T01:28:34.175Z,5.88
2022-09-23T01:31:05.978Z,6.60
2022-09-23T01:33:36.182Z,5.80
2022-09-23T01:36:10.812Z,6.25
2022-09-23T01:38:42.930Z,6.50
2022-09-23T01:41:17.243Z,6.72
2022-09-23T01:43:48.844Z,5.75
2022-09-23T01:46:20.548Z,5.40
2022-09-23T01:48:52.047Z,5.53
2022-09-23T01:51:21.346Z,6.32
2022-09-23T01:53:53.402Z,5.97
2022-09-23T01:56:23.681Z,6.22
2022-09-23T01:58:53.740Z,6.55
2022-09-23T02:01:25.852Z,6.95
2022-09-23T02:03:56.711Z,6.78
2022-09-23T02:06:26.928Z,6.13
2022-09-23T02:08:57.546Z,6.47
2022-09-23T02:11:25.345Z,6.40
2022-09-23T02:13:54.080Z,5.55
2022-09-23T02:16:26.171Z,7.03
2022-09-23T02:18:56.735Z,5.75
2022-09-23T02:21:25.837Z,5.95
2022-09-23T02:23:54.052Z,5.13
2022-09-23T02:26:23.756Z,7.03
2022-09-23T02:28:56.411Z,5.68
2022-09-23T02:31:31.036Z,5.68
2022-09-23T02:34:01.048Z,6.75
2022-09-23T02:36:31.389Z,5.97
2022-09-23T02:39:00.363Z,5.40
2022-09-23T02:41:29.707Z,6.82
2022-09-23T02:43:59.759Z,5.25
2022-09-23T02:46:29.973Z,6.47
2022-09-23T02:49:00.853Z,6.00
2022-09-23T02:51:28.889Z,6.10
2022-09-23T02:53:56.690Z,6.25
2022-09-23T02:56:24.071Z,6.38
2022-09-23T02:58:53.462Z,6.13
2022-09-23T03:01:26.192Z,5.82
2022-09-23T03:03:57.051Z,5.82
2022-09-23T03:06:31.338Z,5.78
2022-09-23T03:09:00.447Z,6.15
2022-09-23T03:11:28.265Z,5.32
2022-09-23T03:14:04.978Z,5.80
2022-09-23T03:16:35.612Z,5.97
2022-09-23T03:19:12.703Z,6.03
2022-09-23T03:21:42.158Z,5.90
2022-09-23T03:24:10.469Z,5.97
2022-09-23T03:26:39.795Z,5.20
2022-09-23T03:29:11.147Z,4.80
2022-09-23T03:31:39.965Z,5.00
2022-09-23T03:34:10.898Z,5.22
2022-09-23T03:36:51.874Z,5.20
2022-09-23T03:39:25.051Z,6.57
2022-09-23T03:41:53.643Z,5.28
2022-09-23T03:44:21.662Z,5.40
2022-09-23T03:46:50.492Z,5.00
2022-09-23T03:49:22.809Z,5.35
2022-09-23T03:51:50.198Z,4.85
2022-09-23T03:54:20.254Z,5.13
2022-09-23T03:56:48.488Z,6.00
2022-09-23T03:59:15.983Z,5.70
2022-09-23T04:01:43.483Z,5.03
2022-09-23T04:04:11.451Z,5.70
2022-09-23T04:06:40.194Z,5.82
2022-09-23T04:09:07.857Z,5.10
2022-09-23T04:11:35.360Z,4.90
2022-09-23T04:14:02.756Z,5.32
2022-09-23T04:16:30.189Z,5.47
2022-09-23T04:18:57.610Z,5.72
2022-09-23T04:21:25.350Z,5.60
2022-09-23T04:23:54.097Z,4.60
2022-09-23T04:26:21.541Z,6.75
2022-09-23T04:28:48.941Z,5.40
2022-09-23T04:31:16.414Z,6.03
2022-09-23T04:33:43.919Z,6.97
2022-09-23T04:36:11.325Z,5.95
2022-09-23T04:38:38.774Z,5.70
2022-09-23T04:41:10.504Z,6.30
2022-09-23T04:43:37.921Z,5.88
2022-09-23T04:46:06.332Z,5.65
2022-09-23T04:48:33.827Z,5.35
2022-09-23T04:51:04.946Z,7.65
2022-09-23T04:53:32.611Z,5.80
2022-09-23T04:56:02.156Z,7.13
2022-09-23T04:58:30.893Z,6.53
2022-09-23T05:01:02.971Z,7.38
2022-09-23T05:03:35.586Z,6.55
2022-09-23T05:06:03.053Z,6.82
2022-09-23T05:08:30.626Z,6.88
2022-09-23T05:10:58.740Z,7.70
2022-09-23T05:13:26.269Z,6.07
2022-09-23T05:15:59.597Z,5.32
2022-09-23T05:18:27.080Z,7.50
2022-09-23T05:20:55.308Z,6.28
2022-09-23T05:23:22.903Z,5.78
2022-09-23T05:25:50.421Z,5.60
2022-09-23T05:28:20.024Z,5.32
2022-09-23T05:30:47.446Z,5.30
2022-09-23T05:33:16.183Z,5.80
2022-09-23T05:35:47.009Z,5.82
2022-09-23T05:38:16.325Z,6.88
2022-09-23T05:40:44.160Z,4.90
2022-09-23T05:45:39.082Z,5.38
2022-09-23T05:48:06.505Z,5.90
2022-09-23T05:50:35.424Z,5.78
2022-09-23T05:53:02.819Z,5.68
2022-09-23T05:55:30.787Z,5.00
2022-09-23T06:00:25.921Z,4.40
2022-09-23T06:02:53.410Z,5.00
2022-09-23T06:05:20.865Z,5.10
2022-09-23T06:07:49.619Z,5.85
2022-09-23T06:10:17.133Z,5.10
2022-09-23T06:12:44.920Z,4.53
2022-09-23T06:15:12.996Z,5.40
2022-09-23T06:17:40.383Z,5.68
2022-09-23T06:20:08.319Z,6.03
2022-09-23T06:25:08.231Z,5.32
2022-09-23T06:27:35.607Z,5.07
2022-09-23T06:30:03.041Z,4.93
2022-09-23T06:32:30.430Z,5.15
2022-09-23T06:34:57.855Z,10.40
2022-09-23T06:37:25.368Z,6.70
2022-09-23T06:39:54.749Z,6.18
2022-09-23T06:42:23.538Z,5.32
2022-09-23T06:44:50.930Z,5.95
2022-09-23T06:47:18.325Z,7.07
2022-09-23T06:49:45.724Z,6.20
2022-09-23T06:52:13.119Z,7.00
2022-09-23T06:54:40.524Z,5.63
2022-09-23T06:57:07.907Z,5.95
2022-09-23T06:59:36.655Z,7.00
2022-09-23T07:02:04.251Z,5.07
2022-09-23T07:04:31.909Z,5.00
2022-09-23T07:06:59.362Z,4.88
2022-09-23T07:09:27.732Z,4.43
2022-09-23T07:11:55.111Z,3.50
2022-09-23T07:14:22.626Z,2.88
2022-09-23T07:16:53.165Z,2.22
2022-09-23T07:19:20.555Z,2.20
2022-09-23T07:21:47.928Z,2.60
2022-09-23T07:24:15.544Z,3.00
2022-09-23T07:26:45.680Z,2.38
2022-09-23T07:29:13.667Z,2.17
2022-09-23T07:31:41.165Z,2.40
2022-09-23T07:34:11.362Z,2.63
2022-09-23T07:36:40.754Z,2.65
2022-09-23T07:39:09.114Z,2.08
2022-09-23T07:41:37.052Z,2.15
2022-09-23T07:46:34.492Z,4.00
2022-09-23T07:49:03.115Z,1.90
2022-09-23T07:51:36.112Z,2.35
2022-09-23T07:54:05.235Z,2.22
2022-09-23T07:56:33.204Z,2.47
2022-09-23T08:01:33.029Z,2.40
2022-09-23T08:04:01.264Z,1.98
2022-09-23T08:06:28.642Z,2.47
2022-09-23T08:08:59.243Z,2.38
2022-09-23T08:11:26.903Z,2.40
2022-09-23T08:13:54.373Z,1.95
2022-09-23T08:16:21.962Z,2.58
2022-09-23T08:18:49.798Z,2.20
2022-09-23T08:21:19.666Z,2.20
2022-09-23T08:23:47.060Z,2.67
2022-09-23T08:26:20.920Z,1.95
2022-09-23T08:28:49.543Z,7.60
2022-09-23T08:31:17.086Z,2.67
2022-09-23T08:33:44.556Z,1.88
2022-09-23T08:36:12.042Z,2.60
2022-09-23T08:38:39.432Z,2.38
2022-09-23T08:41:10.248Z,2.30
2022-09-23T08:43:39.519Z,3.25
2022-09-23T08:46:10.677Z,2.95
2022-09-23T08:48:42.076Z,2.60
2022-09-23T08:51:13.621Z,2.63
2022-09-23T08:53:42.149Z,1.98
2022-09-23T08:56:13.131Z,3.15
2022-09-23T08:58:48.661Z,2.65
2022-09-23T09:01:20.394Z,2.28
2022-09-23T09:03:49.833Z,1.70
2022-09-23T09:06:19.709Z,2.38
2022-09-23T09:08:51.028Z,1.80
2022-09-23T09:11:19.158Z,2.30
2022-09-23T09:13:54.116Z,2.22
2022-09-23T09:16:55.498Z,1.70
2022-09-23T09:19:19.932Z,1.67
2022-09-23T09:21:48.722Z,2.17
2022-09-23T09:24:18.728Z,1.92
2022-09-23T09:26:46.200Z,2.15
2022-09-23T09:29:34.097Z,2.35
2022-09-23T09:32:14.204Z,2.10
2022-09-23T09:34:46.143Z,2.13
2022-09-23T09:37:16.576Z,2.33
2022-09-23T09:39:44.013Z,2.10
2022-09-23T09:42:15.211Z,1.55
2022-09-23T09:44:49.852Z,1.92
2022-09-23T09:47:28.295Z,1.85
2022-09-23T09:49:58.976Z,2.63
2022-09-23T09:52:28.660Z,2.40
2022-09-23T09:54:59.053Z,2.00
2022-09-23T09:57:33.569Z,1.75
2022-09-23T10:00:18.752Z,1.90
2022-09-23T10:02:49.188Z,2.20
2022-09-23T10:05:25.588Z,1.92
2022-09-23T10:07:53.004Z,2.42
2022-09-23T10:10:32.235Z,2.20
2022-09-23T10:13:14.038Z,1.90
2022-09-23T10:15:44.872Z,2.03
2022-09-23T10:18:20.438Z,2.10
2022-09-23T10:20:48.963Z,1.90
2022-09-23T10:23:20.966Z,1.90
2022-09-23T10:25:56.489Z,1.83
2022-09-23T10:28:34.176Z,1.60
2022-09-23T10:33:32.067Z,1.50
2022-09-23T10:35:59.567Z,1.50
2022-09-23T10:38:26.973Z,1.85
2022-09-23T10:41:12.747Z,1.95
2022-09-23T10:44:00.871Z,2.15
2022-09-23T10:46:42.239Z,1.70
2022-09-23T10:49:19.408Z,1.58
2022-09-23T10:51:49.627Z,1.48
2022-09-23T10:54:20.956Z,1.95
2022-09-23T10:56:50.568Z,1.48
2022-09-23T10:59:31.512Z,2.10
2022-09-23T11:02:05.838Z,1.77
2022-09-23T11:04:43.195Z,1.67
2022-09-23T11:07:19.168Z,1.65
2022-09-23T11:09:53.089Z,1.55
2022-09-23T11:12:26.087Z,1.50
2022-09-23T11:15:04.561Z,1.95
2022-09-23T11:17:46.875Z,1.40
2022-09-23T11:20:31.902Z,1.55
2022-09-23T11:23:20.122Z,1.85
2022-09-23T11:25:51.530Z,1.73
2022-09-23T11:28:30.255Z,1.80
2022-09-23T11:31:04.131Z,1.63
2022-09-23T11:33:36.715Z,2.10
2022-09-23T11:36:07.692Z,2.00
2022-09-23T11:38:38.456Z,2.58
2022-09-23T11:41:12.952Z,2.47
2022-09-23T11:43:41.315Z,2.15
2022-09-23T11:46:13.692Z,2.00
2022-09-23T11:48:43.045Z,2.20
2022-09-23T11:51:14.281Z,2.20
2022-09-23T11:53:44.078Z,2.10
2022-09-23T11:56:24.060Z,2.38
2022-09-23T11:59:00.004Z,2.35
2022-09-23T12:01:37.197Z,2.05
2022-09-23T12:06:48.532Z,2.10
2022-09-23T12:09:30.995Z,1.90
2022-09-23T12:12:11.194Z,1.88
2022-09-23T12:14:44.618Z,1.83
2022-09-23T12:17:21.862Z,2.00
2022-09-23T12:19:58.191Z,1.90
2022-09-23T12:22:40.402Z,2.10
2022-09-23T12:25:14.269Z,1.85
2022-09-23T12:27:44.748Z,1.70
2022-09-23T12:30:15.005Z,1.50
2022-09-23T12:32:42.990Z,1.67
2022-09-23T12:35:21.979Z,1.40
2022-09-23T12:37:50.957Z,1.20
2022-09-23T12:40:21.587Z,1.50
2022-09-23T12:42:49.664Z,1.30
2022-09-23T12:45:20.165Z,2.20
2022-09-23T12:47:47.699Z,1.75
2022-09-23T12:50:45.328Z,1.30
2022-09-23T12:53:31.015Z,1.25
2022-09-23T12:56:00.290Z,1.70
2022-09-23T12:58:38.408Z,1.30
2022-09-23T13:01:09.899Z,1.60
2022-09-23T13:03:55.036Z,1.50
2022-09-23T13:06:40.784Z,1.42
2022-09-23T13:09:09.823Z,1.63
2022-09-23T13:11:41.344Z,1.40
2022-09-23T13:14:08.915Z,1.30
2022-09-23T13:16:38.444Z,1.30
2022-09-23T13:19:06.481Z,1.67
2022-09-23T13:21:52.715Z,1.67
2022-09-23T13:24:21.230Z,1.70
2022-09-23T13:26:51.250Z,1.40
2022-09-23T13:29:21.215Z,1.17
2022-09-23T13:31:48.791Z,1.42
2022-09-23T13:34:17.323Z,1.38
2022-09-23T13:36:45.258Z,1.42
2022-09-23T13:39:16.335Z,2.10
2022-09-23T13:41:44.928Z,1.33
2022-09-23T13:44:16.838Z,1.95
2022-09-23T13:46:46.627Z,1.65
2022-09-23T13:49:21.249Z,1.90
2022-09-23T13:51:48.741Z,1.65
2022-09-23T13:54:28.734Z,1.67
2022-09-23T13:56:56.444Z,1.63
2022-09-23T13:59:26.881Z,2.40
2022-09-23T14:02:03.051Z,1.92
2022-09-23T14:04:30.577Z,1.95
2022-09-23T14:06:58.137Z,2.40
2022-09-23T14:09:27.321Z,2.25
2022-09-23T14:11:55.784Z,2.25
2022-09-23T14:14:23.283Z,2.53
2022-09-23T14:16:52.768Z,1.77
2022-09-23T14:19:21.869Z,2.45
2022-09-23T14:21:49.920Z,2.55
2022-09-23T14:24:18.851Z,2.60
2022-09-23T14:26:48.163Z,1.92
2022-09-23T14:29:17.361Z,2.05
2022-09-23T14:31:56.575Z,2.35
2022-09-23T14:34:39.145Z,2.60
2022-09-23T14:37:28.990Z,2.60
2022-09-23T14:39:57.904Z,2.30
2022-09-23T14:42:25.998Z,2.67
2022-09-23T14:44:53.505Z,2.20
2022-09-23T14:47:20.919Z,1.98
2022-09-23T14:50:09.424Z,2.20
2022-09-23T14:52:38.227Z,2.83
2022-09-23T14:55:06.895Z,2.28
2022-09-23T14:57:34.486Z,2.38
2022-09-23T15:00:09.148Z,2.30
2022-09-23T15:02:37.507Z,2.95
2022-09-23T15:05:09.500Z,2.08
2022-09-23T15:07:39.090Z,2.20
2022-09-23T15:10:09.566Z,2.40
2022-09-23T15:12:37.252Z,2.30
2022-09-23T15:15:06.176Z,2.15
2022-09-23T15:17:34.944Z,2.03
2022-09-23T15:20:03.534Z,2.53
2022-09-23T15:22:31.043Z,2.40
2022-09-23T15:25:12.685Z,2.90
2022-09-23T15:27:40.763Z,2.63
2022-09-23T15:30:15.425Z,2.03
2022-09-23T15:32:43.321Z,2.40
2022-09-23T15:35:13.592Z,2.97
2022-09-23T15:37:41.057Z,2.95
2022-09-23T15:40:12.384Z,2.88
2022-09-23T15:42:39.833Z,3.88
2022-09-23T15:45:09.215Z,3.47
2022-09-23T15:47:37.894Z,3.97
2022-09-23T15:50:07.196Z,3.47
2022-09-23T15:52:34.661Z,3.78
2022-09-23T15:55:02.099Z,4.03
2022-09-23T15:57:30.816Z,3.70
2022-09-23T15:59:58.718Z,3.05
2022-09-23T16:04:53.578Z,3.97
2022-09-23T16:07:21.749Z,3.90
2022-09-23T16:09:49.177Z,3.00
2022-09-23T16:12:16.622Z,2.95
2022-09-23T16:14:45.385Z,3.55
2022-09-23T16:17:14.075Z,3.28
2022-09-23T16:19:41.461Z,3.58
2022-09-23T16:22:08.882Z,3.28
2022-09-23T16:24:36.321Z,3.28
2022-09-23T16:27:05.678Z,3.60
2022-09-23T16:29:33.080Z,3.83
2022-09-23T16:32:02.076Z,4.03
2022-09-23T16:34:29.581Z,3.90
2022-09-23T16:36:57.065Z,3.53
2022-09-23T16:39:24.472Z,3.22
2022-09-23T16:41:52.597Z,3.25
2022-09-23T16:44:20.293Z,3.55
2022-09-23T16:46:47.823Z,3.83
2022-09-23T16:49:16.614Z,3.92
2022-09-23T16:51:44.059Z,3.33
2022-09-23T16:54:12.127Z,3.08
2022-09-23T16:56:41.591Z,3.28
2022-09-23T16:59:09.049Z,3.60
2022-09-23T17:01:53.986Z,3.38
2022-09-23T17:04:22.783Z,3.22
2022-09-23T17:06:51.421Z,3.53
2022-09-23T17:09:19.795Z,3.22
2022-09-23T17:11:49.412Z,3.58
2022-09-23T17:14:16.840Z,7.30
2022-09-23T17:16:44.316Z,4.00
2022-09-23T17:19:12.660Z,4.03
2022-09-23T17:21:41.713Z,4.90
2022-09-23T17:24:09.940Z,5.68
2022-09-23T17:26:38.190Z,4.95
2022-09-23T17:29:06.138Z,4.22
2022-09-23T17:34:00.894Z,4.97
2022-09-23T17:36:28.797Z,5.25
2022-09-23T17:41:24.820Z,4.65
2022-09-23T17:43:56.523Z,5.63
2022-09-23T17:46:23.971Z,5.10
2022-09-23T17:48:52.841Z,4.05
2022-09-23T17:51:20.563Z,5.13
2022-09-23T17:53:48.790Z,4.43
2022-09-23T17:56:17.336Z,4.80
2022-09-23T17:58:46.909Z,5.43
2022-09-23T18:01:15.760Z,4.38
2022-09-23T18:03:43.792Z,4.90
2022-09-23T18:06:12.257Z,4.68
2022-09-23T18:08:40.400Z,4.70
2022-09-23T18:11:14.479Z,4.60
2022-09-23T18:13:42.009Z,4.60
2022-09-23T18:16:10.890Z,5.25
2022-09-23T18:18:38.345Z,4.82
2022-09-23T18:21:06.655Z,5.32
2022-09-23T18:23:34.082Z,5.07
2022-09-23T18:26:01.539Z,4.90
2022-09-23T18:28:34.060Z,5.07
2022-09-23T18:31:02.390Z,4.97
2022-09-23T18:33:31.158Z,5.32
2022-09-23T18:35:59.883Z,5.70
2022-09-23T18:38:27.427Z,6.10
2022-09-23T18:40:56.956Z,6.18
2022-09-23T18:43:25.954Z,5.80
2022-09-23T18:45:57.526Z,5.55
2022-09-23T18:48:42.471Z,6.07
2022-09-23T18:51:11.836Z,5.32
2022-09-23T18:53:39.254Z,5.53
2022-09-23T18:56:07.389Z,6.35
2022-09-23T18:58:34.819Z,5.95
2022-09-23T19:01:06.328Z,6.22
2022-09-23T19:03:33.912Z,6.57
2022-09-23T19:06:01.963Z,5.78
2022-09-23T19:08:31.036Z,5.95
2022-09-23T19:10:59.183Z,6.95
2022-09-23T19:13:26.642Z,6.38
2022-09-23T19:15:54.100Z,6.15
2022-09-23T19:18:21.652Z,6.03
2022-09-23T19:20:52.570Z,6.38
2022-09-23T19:23:20.011Z,6.47
2022-09-23T19:25:48.862Z,6.80
2022-09-23T19:28:16.251Z,6.85
2022-09-23T19:30:43.641Z,7.28
2022-09-23T19:33:11.045Z,7.13
2022-09-23T19:35:47.369Z,6.75
2022-09-23T19:38:15.987Z,6.93
2022-09-23T19:40:49.046Z,6.65
2022-09-23T19:43:21.061Z,7.57
2022-09-23T19:45:53.756Z,7.15
2022-09-23T19:48:21.251Z,7.32
2022-09-23T19:50:48.918Z,7.35
2022-09-23T19:53:16.355Z,7.32
2022-09-23T19:55:44.206Z,7.38
2022-09-23T20:00:40.400Z,8.05
2022-09-23T20:03:09.764Z,8.95
2022-09-23T20:05:37.171Z,7.60
2022-09-23T20:08:04.941Z,7.70
2022-09-23T20:10:32.668Z,8.68
2022-09-23T20:13:00.359Z,8.65
2022-09-23T20:15:28.930Z,8.10
2022-09-23T20:17:58.243Z,6.97
2022-09-23T20:20:25.669Z,6.82
2022-09-23T20:22:55.016Z,8.00
2022-09-23T20:25:22.481Z,7.30
2022-09-23T20:27:52.001Z,6.95
2022-09-23T20:30:19.513Z,8.30
2022-09-23T20:32:48.472Z,7.70
2022-09-23T20:35:17.241Z,6.97
2022-09-23T20:37:44.648Z,6.85
2022-09-23T20:40:12.132Z,6.90
2022-09-23T20:42:39.586Z,6.75
2022-09-23T20:45:07.899Z,7.35
2022-09-23T20:47:35.302Z,6.78
2022-09-23T20:50:02.736Z,6.95
2022-09-23T20:52:32.906Z,7.43
2022-09-23T20:55:02.165Z,7.30
2022-09-23T20:57:31.347Z,7.20
2022-09-23T20:59:58.946Z,6.72
2022-09-23T21:02:27.240Z,6.70
2022-09-23T21:04:56.774Z,8.05
2022-09-23T21:07:24.500Z,7.25
2022-09-23T21:09:53.284Z,7.47
2022-09-23T21:12:20.664Z,6.70
2022-09-23T21:14:48.081Z,7.57
2022-09-23T21:17:15.477Z,7.70
2022-09-23T21:19:42.870Z,8.52
2022-09-23T21:22:10.401Z,7.88
2022-09-23T21:25:25.066Z,8.57
2022-09-23T21:27:27.033Z,8.68
2022-09-23T21:29:57.414Z,8.73
2022-09-23T21:32:24.938Z,9.10
2022-09-23T21:34:52.458Z,8.68
2022-09-23T21:37:19.857Z,9.55
2022-09-23T21:40:07.326Z,8.80
2022-09-23T21:42:36.195Z,9.30
2022-09-23T21:45:04.097Z,9.85
2022-09-23T21:49:59.753Z,9.90
2022-09-23T21:52:27.224Z,9.90
2022-09-23T21:54:54.623Z,9.82
2022-09-23T21:57:25.750Z,8.80
2022-09-23T21:59:54.656Z,9.98
2022-09-23T22:02:22.498Z,10.80
2022-09-23T22:04:49.897Z,10.63
2022-09-23T22:07:17.414Z,10.73
2022-09-23T22:09:46.831Z,10.65
2022-09-23T22:12:14.243Z,12.77
2022-09-23T22:14:42.760Z,12.25
2022-09-23T22:17:14.390Z,10.65
2022-09-23T22:19:46.730Z,11.60
2022-09-23T22:22:15.686Z,11.10
2022-09-23T22:24:43.481Z,10.98
2022-09-23T22:27:11.712Z,11.45
2022-09-23T22:29:56.503Z,11.50
2022-09-23T22:32:41.462Z,12.02
2022-09-23T22:35:09.192Z,10.20
2022-09-23T22:37:36.993Z,11.25
2022-09-23T22:40:05.205Z,11.13
2022-09-23T22:42:32.715Z,10.88
2022-09-23T22:45:00.132Z,11.25
2022-09-23T22:47:28.966Z,11.52
2022-09-23T22:49:56.397Z,10.05
2022-09-23T22:52:25.075Z,10.02
2022-09-23T22:54:52.537Z,9.60
2022-09-23T22:57:20.336Z,10.15
2022-09-23T22:59:48.749Z,9.27
2022-09-23T23:02:17.704Z,9.75
2022-09-23T23:04:46.980Z,9.23
2022-09-23T23:07:14.610Z,8.65
2022-09-23T23:09:42.323Z,8.65
2022-09-23T23:12:09.737Z,9.77
2022-09-23T23:14:37.675Z,8.35
2022-09-23T23:19:35.106Z,8.15
2022-09-23T23:22:04.350Z,8.07
2022-09-23T23:24:32.314Z,7.55
2022-09-23T23:29:27.707Z,7.38
2022-09-23T23:31:55.247Z,7.20
2022-09-23T23:34:23.089Z,8.10
2022-09-23T23:36:54.597Z,7.03
2022-09-23T23:39:24.495Z,7.43
2022-09-23T23:41:52.677Z,7.10
2022-09-23T23:44:20.080Z,6.90
2022-09-23T23:46:48.096Z,6.63
2022-09-23T23:49:15.699Z,7.03
2022-09-23T23:51:43.244Z,6.55
2022-09-23T23:54:11.667Z,7.75
2022-09-23T23:56:40.476Z,7.05
2022-09-23T23:59:07.905Z,6.00
